createdAt,value
2023-04-15T00:00:09.301Z,42.63
2023-04-15T00:02:38.034Z,4.65
2023-04-15T00:05:06.508Z,6.30
2023-04-15T00:07:34.340Z,10.60
2023-04-15T00:10:07.252Z,5.20
2023-04-15T00:12:35.265Z,7.22
2023-04-15T00:15:03.360Z,4.53
2023-04-15T00:17:34.236Z,4.65
2023-04-15T00:20:01.960Z,5.32
2023-04-15T00:22:29.585Z,4.60
2023-04-15T00:24:57.763Z,6.03
2023-04-15T00:27:27.095Z,4.10
2023-04-15T00:29:54.812Z,4.25
2023-04-15T00:32:22.451Z,4.55
2023-04-15T00:34:50.816Z,4.80
2023-04-15T00:37:21.328Z,4.22
2023-04-15T00:39:49.253Z,4.57
2023-04-15T00:42:17.393Z,4.60
2023-04-15T00:44:46.472Z,4.28
2023-04-15T00:47:14.790Z,4.15
2023-04-15T00:49:45.112Z,4.53
2023-04-15T00:52:13.730Z,4.22
2023-04-15T00:54:41.598Z,4.38
2023-04-15T00:57:09.947Z,5.05
2023-04-15T00:59:37.590Z,4.93
2023-04-15T01:02:07.322Z,4.97
2023-04-15T01:04:38.525Z,5.22
2023-04-15T01:07:06.918Z,5.15
2023-04-15T01:09:34.563Z,4.45
2023-04-15T01:12:11.385Z,4.85
2023-04-15T01:14:41.587Z,7.00
2023-04-15T01:17:12.430Z,5.82
2023-04-15T01:19:43.533Z,4.82
2023-04-15T01:22:13.870Z,4.60
2023-04-15T01:24:44.707Z,5.25
2023-04-15T01:27:17.624Z,5.07
2023-04-15T01:29:45.282Z,5.28
2023-04-15T01:32:12.844Z,4.75
2023-04-15T01:34:41.575Z,5.60
2023-04-15T01:37:09.457Z,4.97
2023-04-15T01:39:46.361Z,4.93
2023-04-15T01:42:18.817Z,5.18
2023-04-15T01:44:46.554Z,6.18
2023-04-15T01:47:16.674Z,5.35
2023-04-15T01:49:46.942Z,5.72
2023-04-15T01:52:18.393Z,7.80
2023-04-15T01:54:49.220Z,5.82
2023-04-15T01:57:18.494Z,6.80
2023-04-15T01:59:47.045Z,6.40
2023-04-15T02:02:15.522Z,4.82
2023-04-15T02:04:45.233Z,7.03
2023-04-15T02:07:15.523Z,5.90
2023-04-15T02:09:46.875Z,5.80
2023-04-15T02:12:14.755Z,5.40
2023-04-15T02:14:44.603Z,5.90
2023-04-15T02:17:12.525Z,5.20
2023-04-15T02:19:44.510Z,5.60
2023-04-15T02:22:18.273Z,5.60
2023-04-15T02:24:47.102Z,8.23
2023-04-15T02:27:18.775Z,7.25
2023-04-15T02:29:48.121Z,5.97
2023-04-15T02:32:16.676Z,6.05
2023-04-15T02:34:48.620Z,5.78
2023-04-15T02:37:17.103Z,5.03
2023-04-15T02:39:45.319Z,8.00
2023-04-15T02:42:13.404Z,5.85
2023-04-15T02:44:44.666Z,7.90
2023-04-15T02:47:15.118Z,7.03
2023-04-15T02:49:45.153Z,5.97
2023-04-15T02:52:14.041Z,6.80
2023-04-15T02:57:18.778Z,7.00
2023-04-15T02:59:49.657Z,8.00
2023-04-15T03:02:32.999Z,10.27
2023-04-15T03:05:01.249Z,7.75
2023-04-15T03:07:30.326Z,6.88
2023-04-15T03:10:01.549Z,8.32
2023-04-15T03:12:30.781Z,7.47
2023-04-15T03:14:59.018Z,8.52
2023-04-15T03:17:28.053Z,7.13
2023-04-15T03:19:58.664Z,8.35
2023-04-15T03:22:28.180Z,7.68
2023-04-15T03:24:56.083Z,8.40
2023-04-15T03:27:25.101Z,7.00
2023-04-15T03:29:53.263Z,7.82
2023-04-15T03:32:27.302Z,8.10
2023-04-15T03:34:56.333Z,8.95
2023-04-15T03:37:24.358Z,8.77
2023-04-15T03:39:55.917Z,8.50
2023-04-15T03:42:24.622Z,8.85
2023-04-15T03:44:52.455Z,8.38
2023-04-15T03:47:20.925Z,8.13
2023-04-15T03:49:49.358Z,9.15
2023-04-15T03:52:18.479Z,8.27
2023-04-15T03:54:46.683Z,11.93
2023-04-15T03:57:18.010Z,7.70
2023-04-15T03:59:45.677Z,12.52
2023-04-15T04:02:17.019Z,10.55
2023-04-15T04:04:49.365Z,10.30
2023-04-15T04:07:18.941Z,10.45
2023-04-15T04:09:49.595Z,8.57
2023-04-15T04:12:18.223Z,9.52
2023-04-15T04:14:46.117Z,9.57
2023-04-15T04:17:13.857Z,12.65
2023-04-15T04:19:50.487Z,11.18
2023-04-15T04:22:19.642Z,11.10
2023-04-15T04:24:49.980Z,13.40
2023-04-15T04:27:17.711Z,12.50
2023-04-15T04:29:50.039Z,12.82
2023-04-15T04:32:17.948Z,10.38
2023-04-15T04:34:45.845Z,13.77
2023-04-15T04:37:14.424Z,12.90
2023-04-15T04:39:44.360Z,14.18
2023-04-15T04:42:12.001Z,11.63
2023-04-15T04:44:46.333Z,13.23
2023-04-15T04:47:15.033Z,14.38
2023-04-15T04:49:43.084Z,15.00
2023-04-15T04:52:11.388Z,13.70
2023-04-15T04:54:39.637Z,17.10
2023-04-15T04:57:09.931Z,15.15
2023-04-15T04:59:44.933Z,14.60
2023-04-15T05:02:34.859Z,16.00
2023-04-15T05:05:02.732Z,14.80
2023-04-15T05:07:30.469Z,16.05
2023-04-15T05:09:58.235Z,17.85
2023-04-15T05:12:27.482Z,16.50
2023-04-15T05:14:55.140Z,17.30
2023-04-15T05:17:22.953Z,16.60
2023-04-15T05:20:10.214Z,18.88
2023-04-15T05:22:38.239Z,18.88
2023-04-15T05:25:06.838Z,18.35
2023-04-15T05:27:36.034Z,19.73
2023-04-15T05:30:03.750Z,19.60
2023-04-15T05:32:31.491Z,18.80
2023-04-15T05:35:00.800Z,21.35
2023-04-15T05:37:28.412Z,24.38
2023-04-15T05:39:56.827Z,20.40
2023-04-15T05:42:24.461Z,23.38
2023-04-15T05:44:53.489Z,19.08
2023-04-15T05:47:26.506Z,23.02
2023-04-15T05:49:55.480Z,23.63
2023-04-15T05:57:18.170Z,20.08
2023-04-15T05:59:47.004Z,22.02
2023-04-15T06:02:17.825Z,20.13
2023-04-15T06:04:45.626Z,19.27
2023-04-15T06:07:13.297Z,24.60
2023-04-15T06:09:41.148Z,23.50
2023-04-15T06:12:12.037Z,24.98
2023-04-15T06:14:40.559Z,21.38
2023-04-15T06:17:08.508Z,20.15
2023-04-15T06:19:37.632Z,20.25
2023-04-15T06:22:07.326Z,20.55
2023-04-15T06:24:36.962Z,25.50
2023-04-15T06:27:04.873Z,22.67
2023-04-15T06:29:32.562Z,23.35
2023-04-15T06:32:00.432Z,23.95
2023-04-15T06:34:28.148Z,24.35
2023-04-15T06:36:57.434Z,28.35
2023-04-15T06:39:25.057Z,24.67
2023-04-15T06:41:52.638Z,27.95
2023-04-15T06:44:20.281Z,23.63
2023-04-15T06:46:48.409Z,25.63
2023-04-15T06:49:15.987Z,26.33
2023-04-15T06:51:43.712Z,33.00
2023-04-15T06:54:15.951Z,26.20
2023-04-15T06:56:43.849Z,30.60
2023-04-15T06:59:11.478Z,26.73
2023-04-15T07:01:39.126Z,25.02
2023-04-15T07:04:07.032Z,32.33
2023-04-15T07:06:35.629Z,31.33
2023-04-15T07:09:05.177Z,33.50
2023-04-15T07:11:42.179Z,33.60
2023-04-15T07:14:09.794Z,31.27
2023-04-15T07:16:37.452Z,28.95
2023-04-15T07:19:05.145Z,33.90
2023-04-15T07:21:33.448Z,35.90
2023-04-15T07:24:01.211Z,30.67
2023-04-15T07:26:29.148Z,27.42
2023-04-15T07:29:00.578Z,34.45
2023-04-15T07:31:28.336Z,36.95
2023-04-15T07:33:55.982Z,34.88
2023-04-15T07:36:26.495Z,37.10
2023-04-15T07:38:55.337Z,31.38
2023-04-15T07:43:51.446Z,33.35
2023-04-15T07:46:20.681Z,34.95
2023-04-15T07:48:48.489Z,35.60
2023-04-15T07:51:16.112Z,34.83
2023-04-15T07:53:44.472Z,33.08
2023-04-15T07:56:12.783Z,34.05
2023-04-15T07:58:40.397Z,38.75
2023-04-15T08:01:07.992Z,35.92
2023-04-15T08:03:37.151Z,35.97
2023-04-15T08:06:05.200Z,39.40
2023-04-15T08:08:32.763Z,40.88
2023-04-15T08:11:00.647Z,40.78
2023-04-15T08:13:28.300Z,36.28
2023-04-15T08:16:14.864Z,39.10
2023-04-15T08:18:43.894Z,36.47
2023-04-15T08:21:11.551Z,35.63
2023-04-15T08:23:39.642Z,35.85
2023-04-15T08:26:07.586Z,37.17
2023-04-15T08:28:35.646Z,44.13
2023-04-15T08:31:03.897Z,41.15
2023-04-15T08:33:31.478Z,33.83
2023-04-15T08:36:00.446Z,36.30
2023-04-15T08:38:28.275Z,35.22
2023-04-15T08:40:56.411Z,32.33
2023-04-15T08:43:26.879Z,37.50
2023-04-15T08:45:54.879Z,37.58
2023-04-15T08:48:24.513Z,38.78
2023-04-15T08:50:52.477Z,35.83
2023-04-15T08:53:21.952Z,32.70
2023-04-15T08:55:53.749Z,34.97
2023-04-15T08:58:21.599Z,41.13
2023-04-15T09:00:49.271Z,36.42
2023-04-15T09:03:18.264Z,34.08
2023-04-15T09:05:46.092Z,37.83
2023-04-15T09:08:13.830Z,36.70
2023-04-15T09:10:42.936Z,35.30
2023-04-15T09:13:10.528Z,40.20
2023-04-15T09:15:39.474Z,40.83
2023-04-15T09:18:07.142Z,37.88
2023-04-15T09:20:41.066Z,35.58
2023-04-15T09:23:14.194Z,40.60
2023-04-15T09:25:43.677Z,41.92
2023-04-15T09:28:11.839Z,37.03
2023-04-15T09:30:39.476Z,37.65
2023-04-15T09:33:08.559Z,37.20
2023-04-15T09:35:36.957Z,45.88
2023-04-15T09:38:06.278Z,38.25
2023-04-15T09:40:35.819Z,39.15
2023-04-15T09:43:05.441Z,42.30
2023-04-15T09:45:33.659Z,39.15
2023-04-15T09:48:16.007Z,38.70
2023-04-15T09:50:43.914Z,42.65
2023-04-15T09:53:11.899Z,37.35
2023-04-15T09:55:39.648Z,36.90
2023-04-15T09:58:19.267Z,35.33
2023-04-15T10:00:48.343Z,37.20
2023-04-15T10:03:20.717Z,36.63
2023-04-15T10:05:49.690Z,36.78
2023-04-15T10:08:20.066Z,37.97
2023-04-15T10:10:48.356Z,36.00
2023-04-15T10:13:19.437Z,36.78
2023-04-15T10:15:51.705Z,35.15
2023-04-15T10:18:21.536Z,34.53
2023-04-15T10:20:49.755Z,36.05
2023-04-15T10:23:19.204Z,31.05
2023-04-15T10:25:47.277Z,30.67
2023-04-15T10:28:17.353Z,43.88
2023-04-15T10:30:45.270Z,36.30
2023-04-15T10:33:13.515Z,32.15
2023-04-15T10:35:41.404Z,30.00
2023-04-15T10:38:33.769Z,35.17
2023-04-15T10:41:17.059Z,30.92
2023-04-15T10:43:54.144Z,33.00
2023-04-15T10:46:25.933Z,31.95
2023-04-15T10:48:54.938Z,32.17
2023-04-15T10:51:32.669Z,32.38
2023-04-15T10:54:00.759Z,28.65
2023-04-15T10:56:29.996Z,27.20
2023-04-15T10:59:00.980Z,24.48
2023-04-15T11:01:53.112Z,24.83
2023-04-15T11:04:55.589Z,24.95
2023-04-15T11:07:37.472Z,21.75
2023-04-15T11:10:06.064Z,23.40
2023-04-15T11:12:37.013Z,18.67
2023-04-15T11:15:30.763Z,14.93
2023-04-15T11:17:58.810Z,15.65
2023-04-15T11:20:27.066Z,17.77
2023-04-15T11:23:08.230Z,18.95
2023-04-15T11:25:43.807Z,14.23
2023-04-15T11:28:13.253Z,14.23
2023-04-15T11:30:43.586Z,16.10
2023-04-15T11:33:13.785Z,15.55
2023-04-15T11:35:42.194Z,13.80
2023-04-15T11:38:11.932Z,17.42
2023-04-15T11:40:39.805Z,18.90
2023-04-15T11:43:08.335Z,14.93
2023-04-15T11:45:36.450Z,12.35
2023-04-15T11:48:09.678Z,13.60
2023-04-15T11:50:38.175Z,16.50
2023-04-15T11:53:08.510Z,15.18
2023-04-15T11:55:43.908Z,14.63
2023-04-15T11:58:14.448Z,11.82
2023-04-15T12:00:47.885Z,14.90
2023-04-15T12:03:29.762Z,12.95
2023-04-15T12:06:12.173Z,12.10
2023-04-15T12:09:10.264Z,13.45
2023-04-15T12:11:55.936Z,12.48
2023-04-15T12:14:26.548Z,13.90
2023-04-15T12:16:58.076Z,14.45
2023-04-15T12:19:29.997Z,15.98
2023-04-15T12:22:01.132Z,14.10
2023-04-15T12:24:29.321Z,13.02
2023-04-15T12:26:58.330Z,12.95
2023-04-15T12:29:28.196Z,14.40
2023-04-15T12:31:57.672Z,11.00
2023-04-15T12:34:30.656Z,10.27
2023-04-15T12:36:59.441Z,10.82
2023-04-15T12:39:30.533Z,13.52
2023-04-15T12:41:58.927Z,12.30
2023-04-15T12:44:27.117Z,11.90
2023-04-15T12:46:55.079Z,11.77
2023-04-15T12:49:23.433Z,12.43
2023-04-15T12:51:53.844Z,12.55
2023-04-15T12:54:21.965Z,13.70
2023-04-15T12:56:50.940Z,11.88
2023-04-15T12:59:18.798Z,12.70
2023-04-15T13:01:47.780Z,12.65
2023-04-15T13:04:15.707Z,14.60
2023-04-15T13:06:43.910Z,15.25
2023-04-15T13:09:12.982Z,12.38
2023-04-15T13:11:40.767Z,16.15
2023-04-15T13:14:11.319Z,14.25
2023-04-15T13:16:38.956Z,14.02
2023-04-15T13:19:06.595Z,14.73
2023-04-15T13:21:35.765Z,14.00
2023-04-15T13:24:04.902Z,14.30
2023-04-15T13:29:02.357Z,13.05
2023-04-15T13:31:30.022Z,10.65
2023-04-15T13:33:58.193Z,12.55
2023-04-15T13:36:26.382Z,10.82
2023-04-15T13:38:53.967Z,12.38
2023-04-15T13:41:21.847Z,12.05
2023-04-15T13:43:51.162Z,11.63
2023-04-15T13:46:18.967Z,10.90
2023-04-15T13:48:46.961Z,11.43
2023-04-15T13:51:14.560Z,13.88
2023-04-15T13:53:42.166Z,13.25
2023-04-15T13:56:09.828Z,12.23
2023-04-15T13:58:38.378Z,10.55
2023-04-15T14:01:07.722Z,9.38
2023-04-15T14:03:35.866Z,12.50
2023-04-15T14:06:03.901Z,11.57
2023-04-15T14:08:31.520Z,12.25
2023-04-15T14:10:59.130Z,10.48
2023-04-15T14:13:26.749Z,10.57
2023-04-15T14:15:54.391Z,10.45
2023-04-15T14:18:23.364Z,9.13
2023-04-15T14:20:51.018Z,12.52
2023-04-15T14:23:18.622Z,8.90
2023-04-15T14:25:48.189Z,11.50
2023-04-15T14:28:16.264Z,10.35
2023-04-15T14:30:44.105Z,10.93
2023-04-15T14:33:11.764Z,9.23
2023-04-15T14:35:40.717Z,11.15
2023-04-15T14:38:10.985Z,10.77
2023-04-15T14:40:39.049Z,10.57
2023-04-15T14:43:06.901Z,12.98
2023-04-15T14:45:34.675Z,11.00
2023-04-15T14:48:03.317Z,10.10
2023-04-15T14:50:31.043Z,11.00
2023-04-15T14:53:00.260Z,12.32
2023-04-15T14:55:28.357Z,12.77
2023-04-15T14:57:55.968Z,8.77
2023-04-15T15:00:23.653Z,9.82
2023-04-15T15:02:51.404Z,8.65
2023-04-15T15:05:19.364Z,11.20
2023-04-15T15:07:47.184Z,9.55
2023-04-15T15:10:16.518Z,9.10
2023-04-15T15:13:02.160Z,8.85
2023-04-15T15:15:31.640Z,9.07
2023-04-15T15:17:59.435Z,10.07
2023-04-15T15:20:27.443Z,8.43
2023-04-15T15:22:55.030Z,9.77
2023-04-15T15:25:24.019Z,10.23
2023-04-15T15:27:51.701Z,10.85
2023-04-15T15:30:19.407Z,10.77
2023-04-15T15:32:47.104Z,9.90
2023-04-15T15:35:14.857Z,11.40
2023-04-15T15:37:43.482Z,9.93
2023-04-15T15:40:12.195Z,9.23
2023-04-15T15:42:41.834Z,10.63
2023-04-15T15:45:10.222Z,10.35
2023-04-15T15:47:38.203Z,10.43
2023-04-15T15:50:07.724Z,11.43
2023-04-15T15:52:35.474Z,10.35
2023-04-15T15:55:03.271Z,12.88
2023-04-15T15:57:30.924Z,10.85
2023-04-15T16:00:10.607Z,9.70
2023-04-15T16:05:10.432Z,11.18
2023-04-15T16:07:38.088Z,12.25
2023-04-15T16:10:09.698Z,11.95
2023-04-15T16:12:40.395Z,11.38
2023-04-15T16:15:11.789Z,11.23
2023-04-15T16:17:41.899Z,11.23
2023-04-15T16:20:10.668Z,12.23
2023-04-15T16:22:38.542Z,12.85
2023-04-15T16:25:06.875Z,15.05
2023-04-15T16:27:36.540Z,16.02
2023-04-15T16:30:16.172Z,28.15
2023-04-15T16:32:43.876Z,14.93
2023-04-15T16:35:11.629Z,13.02
2023-04-15T16:37:39.455Z,12.35
2023-04-15T16:40:08.546Z,14.68
2023-04-15T16:42:36.792Z,13.43
2023-04-15T16:45:04.940Z,13.80
2023-04-15T16:47:34.011Z,13.35
2023-04-15T16:50:01.687Z,13.07
2023-04-15T16:52:33.813Z,12.48
2023-04-15T16:55:01.759Z,14.73
2023-04-15T16:57:41.945Z,12.48
2023-04-15T17:00:20.245Z,12.57
2023-04-15T17:02:49.750Z,15.73
2023-04-15T17:05:17.824Z,13.98
2023-04-15T17:07:45.710Z,19.45
2023-04-15T17:10:14.299Z,13.77
2023-04-15T17:12:43.388Z,14.10
2023-04-15T17:15:11.578Z,20.55
2023-04-15T17:17:45.008Z,14.18
2023-04-15T17:20:14.569Z,13.82
2023-04-15T17:22:43.615Z,15.75
2023-04-15T17:27:39.593Z,13.45
2023-04-15T17:30:11.185Z,19.58
2023-04-15T17:32:41.714Z,15.43
2023-04-15T17:35:10.139Z,17.55
2023-04-15T17:37:39.688Z,15.77
2023-04-15T17:40:12.403Z,18.13
2023-04-15T17:42:40.803Z,17.05
2023-04-15T17:45:11.473Z,17.02
2023-04-15T17:47:39.123Z,16.40
2023-04-15T17:50:10.327Z,18.88
2023-04-15T17:52:41.966Z,19.73
2023-04-15T17:55:09.913Z,15.70
2023-04-15T17:57:37.541Z,16.35
2023-04-15T18:00:08.731Z,17.33
2023-04-15T18:02:38.499Z,17.98
2023-04-15T18:05:07.506Z,17.38
2023-04-15T18:10:05.034Z,16.13
2023-04-15T18:12:32.582Z,17.42
2023-04-15T18:15:00.435Z,16.90
2023-04-15T18:17:38.248Z,19.88
2023-04-15T18:20:06.750Z,17.52
2023-04-15T18:22:34.655Z,19.08
2023-04-15T18:25:04.112Z,17.67
2023-04-15T18:27:34.421Z,15.88
2023-04-15T18:30:02.092Z,22.38
2023-04-15T18:32:32.411Z,14.70
2023-04-15T18:35:00.308Z,21.50
2023-04-15T18:37:29.215Z,20.92
2023-04-15T18:39:56.944Z,18.50
2023-04-15T18:42:25.064Z,18.90
2023-04-15T18:44:54.511Z,16.88
2023-04-15T18:47:22.209Z,19.45
2023-04-15T18:49:49.833Z,19.00
2023-04-15T18:52:17.430Z,16.45
2023-04-15T18:54:44.998Z,17.70
2023-04-15T18:57:12.589Z,24.95
2023-04-15T18:59:40.262Z,18.85
2023-04-15T19:02:09.220Z,17.88
2023-04-15T19:04:36.939Z,22.90
2023-04-15T19:07:04.610Z,18.90
2023-04-15T19:09:32.651Z,17.02
2023-04-15T19:12:00.225Z,21.55
2023-04-15T19:14:27.784Z,19.92
2023-04-15T19:16:56.134Z,18.38
2023-04-15T19:19:25.120Z,21.77
2023-04-15T19:21:53.849Z,16.15
2023-04-15T19:24:21.923Z,16.92
2023-04-15T19:26:51.016Z,19.08
2023-04-15T19:29:18.693Z,22.50
2023-04-15T19:31:46.547Z,18.35
2023-04-15T19:34:14.117Z,24.70
2023-04-15T19:36:43.537Z,20.65
2023-04-15T19:39:11.641Z,19.98
2023-04-15T19:41:39.360Z,18.13
2023-04-15T19:44:07.065Z,14.27
2023-04-15T19:46:34.785Z,15.15
2023-04-15T19:49:02.410Z,19.10
2023-04-15T19:51:30.699Z,23.05
2023-04-15T19:53:59.675Z,20.20
2023-04-15T19:56:27.472Z,18.83
2023-04-15T19:58:55.785Z,16.20
2023-04-15T20:01:24.908Z,16.52
2023-04-15T20:03:55.597Z,13.93
2023-04-15T20:06:23.506Z,22.05
2023-04-15T20:08:51.736Z,17.05
2023-04-15T20:11:22.161Z,17.25
2023-04-15T20:13:51.218Z,20.30
2023-04-15T20:16:19.049Z,18.83
2023-04-15T20:18:46.885Z,20.45
2023-04-15T20:21:14.546Z,21.38
2023-04-15T20:23:42.399Z,17.08
2023-04-15T20:26:10.037Z,21.60
2023-04-15T20:28:38.986Z,21.90
2023-04-15T20:31:10.023Z,16.40
2023-04-15T20:33:39.970Z,16.00
2023-04-15T20:36:07.657Z,17.00
2023-04-15T20:38:35.232Z,22.00
2023-04-15T20:41:02.863Z,20.83
2023-04-15T20:43:30.570Z,19.02
2023-04-15T20:46:04.390Z,17.58
2023-04-15T20:48:41.449Z,17.65
2023-04-15T20:51:09.005Z,16.92
2023-04-15T20:53:36.571Z,17.92
2023-04-15T20:56:04.547Z,21.98
2023-04-15T20:58:32.113Z,17.60
2023-04-15T21:01:02.023Z,16.25
2023-04-15T21:03:29.877Z,17.58
2023-04-15T21:05:57.574Z,18.00
2023-04-15T21:08:29.212Z,18.67
2023-04-15T21:10:56.852Z,15.38
2023-04-15T21:13:24.895Z,18.00
2023-04-15T21:15:54.082Z,19.67
2023-04-15T21:18:23.296Z,17.60
2023-04-15T21:20:57.097Z,18.55
2023-04-15T21:23:24.694Z,20.88
2023-04-15T21:25:52.386Z,17.23
2023-04-15T21:28:20.053Z,18.98
2023-04-15T21:30:47.620Z,24.73
2023-04-15T21:33:15.192Z,18.40
2023-04-15T21:35:44.193Z,18.85
2023-04-15T21:38:11.837Z,18.23
2023-04-15T21:40:40.597Z,21.15
2023-04-15T21:43:08.689Z,17.02
2023-04-15T21:45:36.511Z,18.25
2023-04-15T21:48:08.069Z,20.00
2023-04-15T21:50:36.863Z,18.70
2023-04-15T21:53:11.196Z,15.70
2023-04-15T21:55:38.886Z,20.00
2023-04-15T21:58:06.524Z,23.83
2023-04-15T22:00:34.470Z,21.95
2023-04-15T22:03:02.337Z,21.85
2023-04-15T22:05:30.101Z,21.55
2023-04-15T22:07:58.279Z,20.25
2023-04-15T22:10:28.549Z,19.20
2023-04-15T22:12:57.126Z,19.90
2023-04-15T22:15:24.730Z,19.25
2023-04-15T22:17:52.343Z,18.05
2023-04-15T22:20:22.764Z,16.98
2023-04-15T22:22:50.391Z,16.23
2023-04-15T22:25:23.657Z,20.63
2023-04-15T22:27:52.705Z,17.60
2023-04-15T22:30:22.426Z,32.05
2023-04-15T22:32:50.227Z,20.45
2023-04-15T22:35:18.308Z,24.88
2023-04-15T22:37:50.854Z,21.02
2023-04-15T22:40:18.501Z,24.23
2023-04-15T22:42:46.813Z,20.70
2023-04-15T22:45:16.227Z,19.65
2023-04-15T22:47:44.106Z,19.05
2023-04-15T22:50:12.182Z,20.55
2023-04-15T22:52:39.772Z,17.45
2023-04-15T22:55:08.785Z,17.15
2023-04-15T22:57:36.404Z,17.60
2023-04-15T23:00:04.193Z,19.58
2023-04-15T23:02:33.381Z,20.30
2023-04-15T23:05:02.327Z,17.88
2023-04-15T23:07:39.590Z,18.52
2023-04-15T23:10:08.622Z,18.23
2023-04-15T23:12:36.296Z,19.30
2023-04-15T23:15:04.105Z,21.25
2023-04-15T23:17:33.404Z,17.85
2023-04-15T23:20:01.074Z,18.80
2023-04-15T23:22:28.684Z,20.77
2023-04-15T23:24:56.366Z,22.55
2023-04-15T23:27:24.031Z,19.58
2023-04-15T23:29:51.680Z,25.52
2023-04-15T23:32:19.375Z,22.58
2023-04-15T23:34:48.327Z,19.15
2023-04-15T23:39:43.644Z,23.00
2023-04-15T23:42:11.260Z,20.05
2023-04-15T23:44:39.201Z,19.70
2023-04-15T23:47:07.079Z,23.73
2023-04-15T23:49:36.472Z,20.92
2023-04-15T23:52:05.703Z,21.17
2023-04-15T23:54:33.422Z,21.58
2023-04-15T23:57:00.970Z,21.38
2023-04-15T23:59:28.524Z,20.42
